Time;durP1;ratioP1;P1;durP2;ratioP2;P2;SDS_P1;SDS_P2;PMS_P1;PMS_P2;Temp;Humidity;BMP_temperature;BMP_pressure;BME280_temperature;BME280_humidity;BME280_pressure;Samples;Min_cycle;Max_cycle;Signal;HPM_P1;HPM_P2
2022/10/26 00:01:14;;;;;;;0.00;0.00;;;10.50;99.90;;;;;;5095710;28;20166;-80
2022/10/26 00:03:42;;;;;;;0.00;0.00;;;10.50;99.90;;;;;;5078900;28;20046;-80
2022/10/26 00:06:17;;;;;;;0.10;0.00;;;10.50;99.90;;;;;;5078380;28;20499;-80
2022/10/26 00:08:43;;;;;;;0.10;0.05;;;10.40;99.90;;;;;;5079007;28;20054;-80
2022/10/26 00:11:10;;;;;;;0.00;0.00;;;10.30;99.90;;;;;;5078874;28;20056;-80
2022/10/26 00:13:37;;;;;;;0.70;0.10;;;10.30;99.90;;;;;;5095498;28;20070;-80
2022/10/26 00:16:20;;;;;;;0.00;0.00;;;10.30;99.90;;;;;;5078385;28;20134;-80
2022/10/26 00:18:46;;;;;;;0.00;0.00;;;10.30;99.90;;;;;;5095389;28;20044;-81
2022/10/26 00:21:12;;;;;;;0.00;0.00;;;10.20;99.90;;;;;;5095450;28;20062;-80
2022/10/26 00:23:38;;;;;;;0.00;0.00;;;10.20;99.90;;;;;;5095436;28;20040;-81
2022/10/26 00:26:04;;;;;;;0.00;0.00;;;10.20;99.90;;;;;;5078762;28;20048;-81
2022/10/26 00:28:31;;;;;;;0.20;0.20;;;10.20;99.90;;;;;;5078103;28;20483;-81
2022/10/26 00:31:01;;;;;;;0.00;0.00;;;10.10;99.90;;;;;;5095229;28;20135;-81
2022/10/26 00:33:28;;;;;;;0.20;0.20;;;10.10;99.90;;;;;;5094849;28;20087;-81
2022/10/26 00:35:55;;;;;;;0.80;0.15;;;10.00;99.90;;;;;;5077891;28;20438;-80
2022/10/26 00:38:20;;;;;;;0.00;0.00;;;10.00;99.90;;;;;;5094350;28;20071;-81
2022/10/26 00:40:46;;;;;;;0.00;0.00;;;9.90;99.90;;;;;;5094613;28;20044;-81
2022/10/26 00:43:33;;;;;;;0.00;0.00;;;9.90;99.90;;;;;;5077996;28;20177;-81
2022/10/26 00:46:00;;;;;;;0.00;0.00;;;9.90;99.90;;;;;;5094693;28;20048;-81
2022/10/26 00:48:39;;;;;;;0.05;0.00;;;9.90;99.90;;;;;;5077795;28;20143;-81
2022/10/26 00:51:13;;;;;;;0.00;0.00;;;9.90;99.90;;;;;;5095121;28;20093;-81
2022/10/26 00:53:40;;;;;;;0.00;0.00;;;9.80;99.90;;;;;;5094669;28;20082;-81
2022/10/26 00:56:06;;;;;;;0.28;0.28;;;9.80;99.90;;;;;;5094557;28;20365;-81
2022/10/26 00:58:33;;;;;;;0.00;0.00;;;9.70;99.90;;;;;;5094946;28;20138;-81
2022/10/26 01:00:59;;;;;;;0.00;0.00;;;9.80;99.90;;;;;;5094635;28;20051;-81
2022/10/26 01:03:26;;;;;;;0.00;0.00;;;9.70;99.90;;;;;;5094038;28;20036;-81
2022/10/26 01:05:55;;;;;;;0.00;0.00;;;9.70;99.90;;;;;;5094441;28;20044;-81
2022/10/26 01:08:22;;;;;;;0.00;0.00;;;9.70;99.90;;;;;;5094265;28;20084;-81
2022/10/26 01:10:48;;;;;;;0.00;0.00;;;9.70;99.90;;;;;;5094181;28;20047;-81
2022/10/26 01:13:16;;;;;;;0.00;0.00;;;9.70;99.90;;;;;;5094463;28;20044;-81
2022/10/26 01:16:26;;;;;;;0.00;0.00;;;9.70;99.90;;;;;;5093998;28;20055;-81
2022/10/26 01:18:58;;;;;;;0.00;0.00;;;9.70;99.90;;;;;;5056056;28;20061;-81
2022/10/26 01:21:38;;;;;;;0.00;0.00;;;9.70;99.90;;;;;;5055944;28;20549;-81
2022/10/26 01:24:20;;;;;;;0.00;0.00;;;9.70;99.90;;;;;;5056296;28;20440;-81
2022/10/26 01:27:30;;;;;;;0.00;0.00;;;9.70;99.90;;;;;;5039207;28;20516;-80
2022/10/26 01:30:26;;;;;;;0.00;0.00;;;9.60;99.90;;;;;;5036200;28;20086;-81
2022/10/26 01:33:00;;;;;;;1.25;0.43;;;9.70;99.90;;;;;;5039270;28;20045;-81
2022/10/26 01:35:28;;;;;;;0.10;0.10;;;9.70;99.90;;;;;;5055586;28;20103;-81
2022/10/26 01:38:05;;;;;;;0.65;0.32;;;9.60;99.90;;;;;;5038469;28;20060;-81
2022/10/26 01:40:51;;;;;;;0.00;0.00;;;9.70;99.90;;;;;;5055162;28;20493;-81
2022/10/26 01:43:19;;;;;;;0.00;0.00;;;9.70;99.90;;;;;;5056023;28;20142;-81
2022/10/26 01:45:47;;;;;;;0.00;0.00;;;9.60;99.90;;;;;;5054985;28;20507;-81
2022/10/26 01:48:16;;;;;;;0.10;0.10;;;9.60;99.90;;;;;;5055465;28;20135;-81
2022/10/26 01:50:45;;;;;;;0.10;0.00;;;9.60;99.90;;;;;;5055412;28;20040;-80
2022/10/26 01:53:13;;;;;;;0.00;0.00;;;9.60;99.90;;;;;;5055565;28;20048;-81
2022/10/26 01:55:46;;;;;;;0.00;0.00;;;9.60;99.90;;;;;;5077767;28;20066;-81
2022/10/26 01:58:34;;;;;;;0.00;0.00;;;9.60;99.90;;;;;;5076485;28;20047;-81
2022/10/26 02:01:12;;;;;;;1.45;0.43;;;9.50;99.90;;;;;;5076496;28;20074;-81
2022/10/26 02:03:54;;;;;;;0.10;0.10;;;9.50;99.90;;;;;;5076412;28;20533;-80
2022/10/26 02:06:39;;;;;;;0.00;0.00;;;9.50;99.90;;;;;;5093405;28;20048;-80
2022/10/26 02:09:26;;;;;;;0.00;0.00;;;9.50;99.90;;;;;;5093123;28;20055;-80
2022/10/26 02:11:53;;;;;;;4.43;0.77;;;9.50;99.90;;;;;;5093330;28;20074;-82
2022/10/26 02:14:41;;;;;;;0.00;0.00;;;9.60;99.90;;;;;;5092960;28;20082;-81
2022/10/26 02:17:19;;;;;;;0.00;0.00;;;9.50;99.90;;;;;;5084066;28;20445;-81
2022/10/26 02:19:55;;;;;;;0.00;0.00;;;9.60;99.90;;;;;;5093062;28;20058;-81
2022/10/26 02:22:27;;;;;;;0.75;0.38;;;9.60;99.90;;;;;;5092804;28;20060;-81
2022/10/26 02:24:53;;;;;;;0.00;0.00;;;9.60;99.90;;;;;;5076270;28;20131;-81
2022/10/26 02:27:25;;;;;;;0.25;0.15;;;9.60;99.90;;;;;;5092662;28;20392;-81
2022/10/26 02:29:53;;;;;;;0.00;0.00;;;9.60;99.90;;;;;;5092885;28;20484;-82
2022/10/26 02:32:20;;;;;;;2.28;0.00;;;9.60;99.90;;;;;;5092831;28;20124;-81
2022/10/26 02:34:48;;;;;;;0.00;0.00;;;9.50;99.90;;;;;;5075754;28;20052;-81
2022/10/26 02:37:17;;;;;;;0.10;0.10;;;9.60;99.90;;;;;;5076017;28;20040;-81
2022/10/26 02:39:44;;;;;;;0.00;0.00;;;9.60;99.90;;;;;;5092503;28;20056;-81
2022/10/26 02:42:12;;;;;;;0.00;0.00;;;9.60;99.90;;;;;;5092606;28;20044;-81
2022/10/26 02:44:47;;;;;;;0.00;0.00;;;9.60;99.90;;;;;;5092740;28;20075;-81
2022/10/26 02:47:12;;;;;;;;;;;9.70;99.90;;;;;;5075941;28;20120;-81
2022/10/26 02:49:39;;;;;;;0.10;0.10;;;9.70;99.90;;;;;;5092060;28;19971;-81
2022/10/26 02:52:17;;;;;;;0.20;0.20;;;9.70;99.90;;;;;;5075949;28;20070;-81
2022/10/26 02:54:58;;;;;;;0.10;0.08;;;9.70;99.90;;;;;;5075379;28;20492;-81
2022/10/26 02:57:38;;;;;;;0.20;0.20;;;9.70;99.90;;;;;;5093922;28;20071;-82
2022/10/26 03:00:11;;;;;;;0.38;0.38;;;9.70;99.90;;;;;;5096967;28;20126;-81
2022/10/26 03:02:37;;;;;;;0.10;0.03;;;9.70;99.90;;;;;;5080162;28;20062;-81
2022/10/26 03:05:23;;;;;;;0.00;0.00;;;9.70;99.90;;;;;;5079867;28;20036;-81
2022/10/26 03:07:48;;;;;;;0.00;0.00;;;9.70;99.90;;;;;;5079982;28;20135;-82
2022/10/26 03:10:14;;;;;;;0.85;0.20;;;9.80;99.90;;;;;;5096686;28;20135;-81
2022/10/26 03:12:40;;;;;;;0.08;0.00;;;9.70;99.90;;;;;;5096945;28;20093;-82
2022/10/26 03:15:06;;;;;;;0.08;0.08;;;9.70;99.90;;;;;;5095960;28;20135;-81
2022/10/26 03:17:31;;;;;;;0.00;0.00;;;9.70;99.90;;;;;;5079533;28;20044;-81
2022/10/26 03:19:57;;;;;;;0.00;0.00;;;9.70;99.90;;;;;;5096323;28;20040;-81
2022/10/26 03:22:23;;;;;;;0.00;0.00;;;9.70;99.90;;;;;;5079656;28;20091;-81
2022/10/26 03:24:48;;;;;;;1.98;0.00;;;9.70;99.90;;;;;;5096273;28;20048;-81
2022/10/26 03:27:14;;;;;;;0.75;0.10;;;9.70;99.90;;;;;;5079635;28;20063;-81
2022/10/26 03:29:40;;;;;;;0.15;0.10;;;9.70;99.90;;;;;;5079197;28;20048;-81
2022/10/26 03:32:06;;;;;;;0.10;0.10;;;9.70;99.90;;;;;;5096043;28;20050;-81
2022/10/26 03:34:31;;;;;;;0.28;0.28;;;9.70;99.90;;;;;;5079212;28;20091;-81
2022/10/26 03:36:57;;;;;;;0.00;0.00;;;9.70;99.90;;;;;;5079092;28;20476;-81
2022/10/26 03:39:23;;;;;;;0.00;0.00;;;9.60;99.90;;;;;;5095652;28;20488;-81
2022/10/26 03:41:49;;;;;;;0.00;0.00;;;9.60;99.90;;;;;;5079017;28;20431;-81
2022/10/26 03:44:15;;;;;;;0.00;0.00;;;9.60;99.90;;;;;;5095914;28;20040;-81
2022/10/26 03:46:40;;;;;;;0.47;0.47;;;9.60;99.90;;;;;;5095925;28;20445;-81
2022/10/26 03:49:06;;;;;;;0.00;0.00;;;9.60;99.90;;;;;;5079110;28;20530;-81
2022/10/26 03:51:31;;;;;;;0.55;0.55;;;9.60;99.90;;;;;;5095712;28;20044;-81
2022/10/26 03:53:57;;;;;;;4.05;0.75;;;9.50;99.90;;;;;;5079294;28;20044;-81
2022/10/26 03:56:23;;;;;;;0.30;0.30;;;9.50;99.90;;;;;;5079062;28;20052;-81
2022/10/26 03:58:48;;;;;;;0.10;0.10;;;9.60;99.90;;;;;;5078711;28;20052;-81
2022/10/26 04:01:14;;;;;;;0.10;0.08;;;9.50;99.90;;;;;;5078580;28;20048;-81
2022/10/26 04:03:40;;;;;;;0.25;0.00;;;9.50;99.90;;;;;;5095446;28;20127;-81
2022/10/26 04:06:06;;;;;;;0.00;0.00;;;9.60;99.90;;;;;;5095238;28;20097;-81
2022/10/26 04:08:31;;;;;;;0.03;0.00;;;9.50;99.90;;;;;;5078169;28;20505;-81
2022/10/26 04:10:57;;;;;;;2.88;0.65;;;9.60;99.90;;;;;;5095292;28;20484;-81
2022/10/26 04:13:22;;;;;;;0.40;0.00;;;9.50;99.90;;;;;;5095724;28;20131;-81
2022/10/26 04:15:48;;;;;;;0.20;0.20;;;9.50;99.90;;;;;;5078233;28;20036;-81
2022/10/26 04:18:14;;;;;;;0.00;0.00;;;9.50;99.90;;;;;;5078181;28;20453;-81
2022/10/26 04:20:41;;;;;;;0.10;0.10;;;9.50;99.90;;;;;;5078247;28;20040;-81
2022/10/26 04:23:13;;;;;;;0.20;0.20;;;9.50;99.90;;;;;;5095748;28;20130;-81
2022/10/26 04:25:39;;;;;;;0.00;0.00;;;9.50;99.90;;;;;;5078731;28;20102;-81
2022/10/26 04:28:06;;;;;;;0.00;0.00;;;9.50;99.90;;;;;;5094757;28;20040;-81
2022/10/26 04:30:33;;;;;;;0.00;0.00;;;9.60;99.90;;;;;;5095099;28;20548;-81
2022/10/26 04:32:59;;;;;;;0.03;0.00;;;9.50;99.90;;;;;;5094836;28;20040;-81
2022/10/26 04:35:25;;;;;;;0.08;0.08;;;9.50;99.90;;;;;;5094774;28;20112;-81
2022/10/26 04:37:55;;;;;;;0.00;0.00;;;9.50;99.90;;;;;;5077912;28;20127;-81
2022/10/26 04:40:21;;;;;;;0.13;0.03;;;9.60;99.90;;;;;;5078344;28;20058;-81
2022/10/26 04:42:46;;;;;;;0.00;0.00;;;9.60;99.90;;;;;;5077938;28;20392;-80
2022/10/26 04:45:14;;;;;;;0.00;0.00;;;9.60;99.90;;;;;;5094915;28;20055;-81
2022/10/26 04:47:40;;;;;;;0.60;0.35;;;9.70;99.90;;;;;;5094556;28;20121;-81
2022/10/26 04:50:07;;;;;;;0.70;0.47;;;9.60;99.90;;;;;;5077842;28;20530;-80
2022/10/26 04:52:33;;;;;;;0.10;0.10;;;9.70;99.90;;;;;;5077673;28;20539;-81
2022/10/26 04:54:59;;;;;;;0.30;0.13;;;9.70;99.90;;;;;;5094196;28;20036;-81
2022/10/26 04:57:25;;;;;;;0.20;0.20;;;9.80;99.90;;;;;;5077596;28;20081;-81
2022/10/26 04:59:50;;;;;;;0.00;0.00;;;9.80;99.90;;;;;;5077647;28;20044;-81
2022/10/26 05:02:16;;;;;;;0.10;0.10;;;9.80;99.90;;;;;;5077531;28;20449;-80
2022/10/26 05:04:42;;;;;;;0.00;0.00;;;9.80;99.90;;;;;;5077256;28;20047;-81
2022/10/26 05:07:07;;;;;;;0.10;0.03;;;9.80;99.90;;;;;;5094756;28;20059;-81
2022/10/26 05:09:33;;;;;;;0.22;0.22;;;9.80;99.90;;;;;;5094210;28;20047;-81
2022/10/26 05:11:58;;;;;;;0.10;0.10;;;9.80;99.90;;;;;;5094528;28;20048;-81
2022/10/26 05:14:24;;;;;;;0.00;0.00;;;9.90;99.90;;;;;;5077167;28;20502;-81
2022/10/26 05:16:50;;;;;;;0.00;0.00;;;9.90;99.90;;;;;;5093827;28;20093;-81
2022/10/26 05:19:16;;;;;;;0.00;0.00;;;9.90;99.90;;;;;;5077163;28;20056;-81
2022/10/26 05:21:41;;;;;;;0.10;0.10;;;9.90;99.90;;;;;;5093113;28;20134;-81
2022/10/26 05:24:10;;;;;;;0.10;0.05;;;9.90;99.90;;;;;;5094093;28;20044;-81
2022/10/26 05:26:36;;;;;;;0.10;0.10;;;9.90;99.90;;;;;;5077421;28;20373;-81
2022/10/26 05:29:01;;;;;;;0.68;0.43;;;10.00;99.90;;;;;;5076801;28;20044;-82
2022/10/26 05:31:27;;;;;;;0.08;0.08;;;9.90;99.90;;;;;;5076739;28;20056;-81
2022/10/26 05:33:53;;;;;;;0.22;0.22;;;10.00;99.90;;;;;;5077427;28;20090;-81
2022/10/26 05:36:18;;;;;;;0.00;0.00;;;9.90;99.90;;;;;;5077357;28;20048;-80
2022/10/26 05:38:44;;;;;;;0.00;0.00;;;10.00;99.90;;;;;;5093551;28;20099;-84
2022/10/26 05:41:10;;;;;;;0.22;0.10;;;10.20;99.90;;;;;;5076616;28;20130;-80
2022/10/26 05:43:36;;;;;;;0.00;0.00;;;10.00;99.90;;;;;;5093336;28;20048;-80
2022/10/26 05:46:02;;;;;;;0.00;0.00;;;10.10;99.90;;;;;;5077027;28;20109;-80
2022/10/26 05:48:27;;;;;;;0.00;0.00;;;10.10;99.90;;;;;;5094135;28;20051;-80
2022/10/26 05:50:53;;;;;;;1.75;1.17;;;10.10;99.90;;;;;;5076735;28;20400;-80
2022/10/26 05:53:19;;;;;;;0.00;0.00;;;10.10;99.90;;;;;;5076512;28;20044;-80
2022/10/26 05:55:45;;;;;;;0.08;0.08;;;10.10;99.90;;;;;;5093262;28;20421;-81
2022/10/26 05:58:13;;;;;;;1.13;0.17;;;10.10;99.90;;;;;;5093465;28;20090;-80
2022/10/26 06:01:00;;;;;;;0.00;0.00;;;10.10;99.90;;;;;;5093641;28;20055;-81
2022/10/26 06:03:53;;;;;;;0.20;0.10;;;10.10;99.90;;;;;;5093491;28;20047;-80
2022/10/26 06:06:21;;;;;;;0.17;0.17;;;10.10;99.90;;;;;;5093087;28;20063;-80
2022/10/26 06:08:47;;;;;;;0.00;0.00;;;10.10;99.90;;;;;;5076235;28;20063;-80
2022/10/26 06:11:12;;;;;;;0.05;0.00;;;10.10;99.90;;;;;;5093836;28;20048;-81
2022/10/26 06:13:38;;;;;;;0.10;0.10;;;10.10;99.90;;;;;;5076452;28;20457;-81
2022/10/26 06:16:13;;;;;;;0.13;0.13;;;10.10;99.90;;;;;;5092797;28;20080;-81
2022/10/26 06:19:04;;;;;;;1.00;0.47;;;10.10;99.90;;;;;;5076660;28;20056;-81
2022/10/26 06:21:45;;;;;;;0.00;0.00;;;10.10;99.90;;;;;;5076409;28;20147;-81
2022/10/26 06:24:10;;;;;;;0.13;0.13;;;10.10;99.90;;;;;;5076494;28;20079;-81
2022/10/26 06:26:54;;;;;;;0.00;0.00;;;10.10;99.90;;;;;;5092942;28;20483;-81
2022/10/26 06:29:58;;;;;;;0.17;0.17;;;10.10;99.90;;;;;;5092971;28;20144;-81
2022/10/26 06:32:23;;;;;;;0.05;0.00;;;10.10;99.90;;;;;;5092125;28;20054;-84
2022/10/26 06:34:54;;;;;;;0.00;0.00;;;10.10;99.90;;;;;;5075611;28;20044;-82
2022/10/26 06:37:20;;;;;;;0.15;0.15;;;10.10;99.90;;;;;;5093092;28;20048;-82
2022/10/26 06:39:49;;;;;;;0.00;0.00;;;10.20;99.90;;;;;;5075325;28;20109;-83
2022/10/26 06:42:15;;;;;;;0.05;0.05;;;10.20;99.90;;;;;;5075652;28;20040;-82
2022/10/26 06:44:41;;;;;;;0.00;0.00;;;10.20;99.90;;;;;;5076694;28;20040;-82
2022/10/26 06:47:35;;;;;;;0.00;0.00;;;10.20;99.90;;;;;;5075827;28;20487;-82
2022/10/26 06:50:25;;;;;;;0.05;0.03;;;10.20;99.90;;;;;;5075915;28;20043;-84
2022/10/26 06:53:08;;;;;;;0.00;0.00;;;10.20;99.90;;;;;;5092669;28;20044;-82
2022/10/26 06:55:44;;;;;;;0.03;0.03;;;10.20;99.90;;;;;;5075751;28;20042;-81
2022/10/26 06:58:17;;;;;;;0.08;0.08;;;10.30;99.90;;;;;;5075413;28;20519;-81
2022/10/26 07:00:48;;;;;;;0.03;0.00;;;10.30;99.90;;;;;;5092569;28;20082;-82
2022/10/26 07:03:14;;;;;;;0.08;0.08;;;10.30;99.90;;;;;;5093064;28;20061;-82
2022/10/26 07:05:39;;;;;;;0.00;0.00;;;10.40;99.90;;;;;;5059826;28;20052;-81
2022/10/26 07:08:05;;;;;;;0.00;0.00;;;10.40;99.90;;;;;;5072024;28;20493;-81
2022/10/26 07:10:33;;;;;;;0.00;0.00;;;10.30;99.90;;;;;;5072147;28;20053;-81
2022/10/26 07:13:00;;;;;;;0.00;0.00;;;10.40;99.90;;;;;;5072252;28;20045;-81
2022/10/26 07:15:25;;;;;;;0.00;0.00;;;10.40;99.90;;;;;;5071992;28;20396;-81
2022/10/26 07:17:51;;;;;;;0.28;0.00;;;10.30;99.90;;;;;;5055698;28;20052;-81
2022/10/26 07:20:19;;;;;;;0.00;0.00;;;10.40;99.90;;;;;;5055304;28;20056;-81
2022/10/26 07:22:49;;;;;;;0.30;0.17;;;10.40;99.90;;;;;;5072170;28;20047;-81
2022/10/26 07:25:15;;;;;;;0.20;0.15;;;10.40;99.90;;;;;;5071985;28;20440;-82
2022/10/26 07:27:41;;;;;;;0.00;0.00;;;10.50;99.90;;;;;;5055034;28;20140;-81
2022/10/26 07:30:07;;;;;;;0.00;0.00;;;10.60;99.90;;;;;;5072107;28;20480;-81
2022/10/26 07:32:33;;;;;;;0.00;0.00;;;10.70;99.90;;;;;;5072719;28;20066;-81
2022/10/26 07:34:58;;;;;;;3.53;0.70;;;10.80;99.90;;;;;;5072062;28;20037;-81
2022/10/26 07:37:24;;;;;;;0.00;0.00;;;11.00;99.90;;;;;;5072425;28;20067;-81
2022/10/26 07:39:49;;;;;;;0.00;0.00;;;11.00;99.90;;;;;;5054936;28;20064;-81
2022/10/26 07:42:15;;;;;;;0.00;0.00;;;11.00;99.90;;;;;;5071882;28;20135;-82
2022/10/26 07:44:41;;;;;;;0.00;0.00;;;11.10;99.90;;;;;;5073544;28;20060;-82
2022/10/26 07:47:06;;;;;;;0.00;0.00;;;11.30;99.90;;;;;;5075495;28;20049;-82
2022/10/26 07:49:32;;;;;;;0.00;0.00;;;11.50;99.90;;;;;;5075740;28;20045;-82
2022/10/26 07:51:57;;;;;;;0.55;0.13;;;11.50;99.90;;;;;;5075516;28;20051;-82
2022/10/26 07:54:23;;;;;;;0.00;0.00;;;11.50;99.90;;;;;;5075670;28;20384;-82
2022/10/26 07:56:49;;;;;;;0.00;0.00;;;11.60;99.90;;;;;;5058940;28;20510;-81
2022/10/26 07:59:16;;;;;;;0.52;0.00;;;11.50;99.90;;;;;;5075274;28;20441;-81
2022/10/26 08:01:41;;;;;;;0.47;0.22;;;11.50;99.90;;;;;;5075316;28;20052;-81
2022/10/26 08:04:07;;;;;;;0.00;0.00;;;11.60;99.90;;;;;;5075292;28;20392;-81
2022/10/26 08:06:33;;;;;;;0.10;0.03;;;11.70;99.90;;;;;;5058505;28;20044;-81
2022/10/26 08:08:59;;;;;;;0.00;0.00;;;11.80;99.90;;;;;;5060978;28;20063;-82
2022/10/26 08:11:24;;;;;;;0.00;0.00;;;11.80;99.90;;;;;;5078780;28;20138;-81
2022/10/26 08:13:54;;;;;;;0.00;0.00;;;11.80;99.90;;;;;;5095348;28;20051;-81
2022/10/26 08:16:20;;;;;;;0.10;0.10;;;11.80;99.90;;;;;;5095175;28;20055;-81
2022/10/26 08:18:50;;;;;;;0.08;0.00;;;11.90;99.90;;;;;;5078917;28;20468;-82
2022/10/26 08:21:16;;;;;;;0.10;0.00;;;12.10;99.90;;;;;;5095196;28;20040;-81
2022/10/26 08:23:42;;;;;;;0.10;0.10;;;12.50;99.90;;;;;;5095220;28;20426;-81
2022/10/26 08:26:12;;;;;;;0.00;0.00;;;13.00;99.90;;;;;;5078198;28;20089;-81
2022/10/26 08:28:38;;;;;;;0.00;0.00;;;13.80;99.90;;;;;;5095026;28;20047;-82
2022/10/26 08:31:05;;;;;;;0.30;0.08;;;14.40;99.90;;;;;;5078360;28;20097;-81
2022/10/26 08:33:31;;;;;;;0.00;0.00;;;15.10;99.90;;;;;;5094988;28;20047;-81
2022/10/26 08:35:58;;;;;;;0.00;0.00;;;16.10;99.90;;;;;;5094670;28;20127;-80
2022/10/26 08:38:24;;;;;;;0.00;0.00;;;17.00;99.90;;;;;;5094911;28;20121;-81
2022/10/26 08:40:51;;;;;;;0.00;0.00;;;17.30;99.90;;;;;;5077629;28;20094;-81
2022/10/26 08:43:26;;;;;;;0.00;0.00;;;17.50;99.90;;;;;;5094831;28;20040;-81
2022/10/26 08:46:04;;;;;;;0.13;0.13;;;17.20;99.90;;;;;;5095056;28;20121;-81
2022/10/26 08:48:37;;;;;;;0.00;0.00;;;16.90;99.90;;;;;;5094832;28;20048;-81
2022/10/26 08:51:12;;;;;;;0.00;0.00;;;17.20;99.90;;;;;;5094807;28;20137;-81
2022/10/26 08:53:42;;;;;;;;;;;18.00;99.90;;;;;;5094770;28;20048;-81
2022/10/26 08:56:19;;;;;;;0.03;0.00;;;18.70;99.90;;;;;;5094092;28;19920;-81
2022/10/26 08:58:56;;;;;;;1.85;0.35;;;19.20;99.90;;;;;;5077809;28;20051;-81
2022/10/26 09:01:22;;;;;;;0.13;0.13;;;19.50;99.90;;;;;;5077692;28;20059;-82
2022/10/26 09:03:47;;;;;;;0.00;0.00;;;19.80;99.90;;;;;;5094130;28;20044;-81
2022/10/26 09:06:22;;;;;;;0.00;0.00;;;19.80;99.90;;;;;;5094388;28;20498;-81
2022/10/26 09:09:07;;;;;;;0.00;0.00;;;20.20;99.90;;;;;;5094284;28;20089;-81
2022/10/26 09:11:53;;;;;;;0.00;0.00;;;20.20;99.90;;;;;;5077898;28;20484;-81
2022/10/26 09:14:37;;;;;;;0.98;0.20;;;20.40;99.90;;;;;;5094108;28;20044;-81
2022/10/26 09:17:21;;;;;;;0.00;0.00;;;20.40;99.90;;;;;;5094800;28;20036;-81
2022/10/26 09:20:02;;;;;;;0.00;0.00;;;20.60;99.90;;;;;;5094267;28;20234;-81
2022/10/26 09:22:48;;;;;;;0.00;0.00;;;20.80;99.90;;;;;;5094706;28;20443;-81
2022/10/26 09:25:19;;;;;;;0.03;0.03;;;21.10;99.90;;;;;;5077897;28;20048;-81
2022/10/26 09:27:50;;;;;;;0.00;0.00;;;21.40;99.90;;;;;;5093966;28;20051;-81
2022/10/26 09:30:19;;;;;;;0.00;0.00;;;21.60;99.90;;;;;;5077042;28;20052;-81
2022/10/26 09:33:01;;;;;;;0.00;0.00;;;21.80;99.90;;;;;;5076978;28;20093;-81
2022/10/26 09:36:03;;;;;;;0.00;0.00;;;21.60;99.90;;;;;;5093565;28;20472;-81
2022/10/26 09:39:15;;;;;;;0.00;0.00;;;21.50;99.90;;;;;;5076736;28;20056;-81
2022/10/26 09:41:50;;;;;;;0.00;0.00;;;21.50;99.90;;;;;;5036224;28;20049;-82
2022/10/26 09:44:30;;;;;;;0.00;0.00;;;21.20;99.90;;;;;;5035817;28;20053;-82
2022/10/26 09:47:40;;;;;;;0.22;0.08;;;21.10;99.90;;;;;;5035264;28;20088;-82
2022/10/26 09:50:13;;;;;;;0.00;0.00;;;21.20;99.90;;;;;;4976773;28;20050;-82
2022/10/26 09:52:38;;;;;;;0.00;0.00;;;21.30;99.90;;;;;;4992764;28;20541;-82
2022/10/26 09:55:04;;;;;;;0.00;0.00;;;21.50;99.90;;;;;;4976592;28;20050;-82
2022/10/26 09:57:30;;;;;;;0.00;0.00;;;21.60;99.90;;;;;;4976195;28;20079;-82
2022/10/26 09:59:56;;;;;;;0.20;0.20;;;21.50;99.90;;;;;;4992985;28;20552;-82
2022/10/26 10:02:37;;;;;;;4.03;0.73;;;21.60;99.90;;;;;;4976714;28;20057;-82
2022/10/26 10:05:25;;;;;;;0.00;0.00;;;21.60;99.90;;;;;;4960805;28;20055;-82
2022/10/26 10:07:51;;;;;;;0.00;0.00;;;21.50;99.90;;;;;;4976165;28;20053;-82
2022/10/26 10:10:21;;;;;;;0.00;0.00;;;21.30;99.90;;;;;;4976548;28;20066;-82
2022/10/26 10:12:51;;;;;;;0.08;0.08;;;21.00;99.90;;;;;;4976526;28;20066;-82
2022/10/26 10:15:22;;;;;;;0.00;0.00;;;20.80;99.90;;;;;;4976083;28;20389;-82
2022/10/26 10:17:54;;;;;;;0.00;0.00;;;20.40;99.90;;;;;;4999389;28;20057;-82
2022/10/26 10:20:29;;;;;;;0.00;0.00;;;20.50;99.90;;;;;;5034845;28;20048;-83
2022/10/26 10:23:00;;;;;;;0.00;0.00;;;20.50;99.90;;;;;;5036350;28;20084;-82
2022/10/26 10:25:37;;;;;;;1.63;0.30;;;20.60;99.90;;;;;;5076228;28;20040;-82
2022/10/26 10:28:25;;;;;;;0.00;0.00;;;20.80;99.90;;;;;;5092937;28;20177;-82
2022/10/26 10:30:54;;;;;;;0.00;0.00;;;20.60;99.90;;;;;;5075997;28;20491;-82
2022/10/26 10:33:20;;;;;;;0.35;0.30;;;20.50;99.90;;;;;;5076149;28;20095;-82
2022/10/26 10:35:50;;;;;;;0.10;0.10;;;20.40;99.90;;;;;;5076522;28;20075;-82
2022/10/26 10:38:18;;;;;;;0.10;0.00;;;20.30;99.90;;;;;;5076314;28;20056;-81
2022/10/26 10:40:55;;;;;;;0.00;0.00;;;20.30;99.90;;;;;;5075984;28;20056;-81
2022/10/26 10:43:21;;;;;;;0.00;0.00;;;20.50;99.90;;;;;;5093470;28;20115;-81
2022/10/26 10:45:50;;;;;;;0.00;0.00;;;20.40;99.90;;;;;;5075801;28;20059;-81
2022/10/26 10:48:19;;;;;;;0.00;0.00;;;20.20;99.90;;;;;;5092837;28;20055;-81
2022/10/26 10:51:17;;;;;;;0.00;0.00;;;20.20;99.90;;;;;;5092956;28;20048;-81
2022/10/26 10:53:49;;;;;;;1.25;0.10;;;20.20;99.90;;;;;;5092294;28;20059;-81
2022/10/26 10:56:46;;;;;;;0.00;0.00;;;20.30;99.90;;;;;;5075783;28;20492;-81
2022/10/26 10:59:38;;;;;;;0.00;0.00;;;20.20;99.90;;;;;;5054730;28;20061;-82
2022/10/26 11:02:19;;;;;;;0.73;0.17;;;20.10;99.90;;;;;;5054972;28;20048;-82
2022/10/26 11:04:50;;;;;;;0.00;0.00;;;20.10;99.90;;;;;;5037572;28;20397;-82
2022/10/26 11:07:17;;;;;;;0.00;0.00;;;20.10;99.90;;;;;;5054254;28;20488;-81
2022/10/26 11:09:45;;;;;;;0.30;0.05;;;20.20;99.90;;;;;;5054063;28;20052;-81
2022/10/26 11:12:20;;;;;;;0.00;0.00;;;20.20;99.90;;;;;;5071066;28;20060;-81
2022/10/26 11:14:47;;;;;;;;;;;20.20;99.90;;;;;;5054782;28;20048;-81
2022/10/26 11:17:24;;;;;;;0.00;0.00;;;20.20;99.90;;;;;;5037526;28;20451;-81
2022/10/26 11:19:57;;;;;;;0.00;0.00;;;20.10;99.90;;;;;;5056882;28;20048;-82
2022/10/26 11:22:34;;;;;;;0.00;0.00;;;20.10;99.90;;;;;;5058550;28;20053;-80
2022/10/26 11:25:09;;;;;;;0.10;0.10;;;20.10;99.90;;;;;;5057093;28;20147;-82
2022/10/26 11:28:23;;;;;;;0.00;0.00;;;19.90;99.90;;;;;;5051993;28;20037;-82
2022/10/26 11:30:59;;;;;;;0.00;0.00;;;19.80;99.90;;;;;;4957832;28;20110;-83
2022/10/26 11:33:31;;;;;;;0.00;0.00;;;19.80;99.90;;;;;;4973875;28;20495;-83
2022/10/26 11:36:19;;;;;;;0.00;0.00;;;19.70;99.90;;;;;;4965741;28;20066;-83
2022/10/26 11:38:54;;;;;;;0.00;0.00;;;19.80;99.90;;;;;;4977035;28;20058;-82
2022/10/26 11:41:30;;;;;;;0.00;0.00;;;19.90;99.90;;;;;;4977484;28;20097;-82
2022/10/26 11:44:23;;;;;;;0.13;0.00;;;20.00;99.90;;;;;;4977465;28;20089;-82
2022/10/26 11:46:54;;;;;;;0.10;0.10;;;20.00;99.90;;;;;;4977887;28;20113;-82
2022/10/26 11:49:29;;;;;;;0.30;0.05;;;20.00;99.90;;;;;;4976837;28;20506;-82
2022/10/26 11:52:23;;;;;;;0.00;0.00;;;20.00;99.90;;;;;;4994751;28;20104;-82
2022/10/26 11:54:55;;;;;;;0.47;0.30;;;20.10;99.90;;;;;;4976614;28;20141;-81
2022/10/26 11:57:23;;;;;;;0.00;0.00;;;20.50;99.90;;;;;;4994922;28;20105;-82
2022/10/26 11:59:53;;;;;;;0.00;0.00;;;20.80;99.90;;;;;;4978244;28;20093;-81
2022/10/26 12:02:21;;;;;;;0.00;0.00;;;21.00;99.90;;;;;;4979000;28;20162;-82
2022/10/26 12:05:05;;;;;;;1.45;0.32;;;21.40;99.90;;;;;;4978500;28;20058;-82
2022/10/26 12:07:39;;;;;;;1.70;0.37;;;21.60;99.90;;;;;;5013510;28;20092;-81
2022/10/26 12:10:20;;;;;;;0.52;0.17;;;21.90;99.90;;;;;;5075512;28;20041;-81
2022/10/26 12:12:52;;;;;;;0.00;0.00;;;22.00;99.90;;;;;;5075354;28;20142;-81
2022/10/26 12:15:45;;;;;;;0.00;0.00;;;22.00;99.90;;;;;;5075010;28;20044;-81
2022/10/26 12:18:15;;;;;;;0.30;0.17;;;21.70;99.90;;;;;;5075648;28;20045;-81
2022/10/26 12:21:03;;;;;;;0.00;0.00;;;21.20;99.90;;;;;;5058434;28;20044;-81
2022/10/26 12:24:21;;;;;;;0.55;0.30;;;20.60;99.90;;;;;;5058319;28;20069;-82
2022/10/26 12:26:53;;;;;;;0.00;0.00;;;20.30;99.90;;;;;;5074638;28;20044;-81
2022/10/26 12:29:32;;;;;;;0.00;0.00;;;20.40;99.90;;;;;;5074718;28;20447;-82
2022/10/26 12:31:58;;;;;;;0.00;0.00;;;20.50;99.90;;;;;;5058047;28;20048;-82
2022/10/26 12:34:49;;;;;;;0.00;0.00;;;20.60;99.90;;;;;;5074674;28;20044;-81
2022/10/26 12:37:31;;;;;;;1.23;0.40;;;20.60;99.90;;;;;;5074939;28;20059;-82
2022/10/26 12:40:31;;;;;;;0.00;0.00;;;20.70;99.90;;;;;;5057710;28;20449;-82
2022/10/26 12:43:17;;;;;;;0.00;0.00;;;20.60;99.90;;;;;;5058107;28;20045;-81
2022/10/26 12:45:45;;;;;;;0.00;0.00;;;20.60;99.90;;;;;;5074097;28;20053;-81
2022/10/26 12:48:41;;;;;;;0.00;0.00;;;20.50;99.90;;;;;;5074779;28;20503;-81
2022/10/26 12:51:24;;;;;;;0.00;0.00;;;20.50;99.90;;;;;;5057862;28;20290;-81
2022/10/26 12:54:07;;;;;;;0.00;0.00;;;20.60;99.90;;;;;;5074888;28;20436;-81
2022/10/26 12:56:41;;;;;;;0.00;0.00;;;20.50;99.90;;;;;;5074365;28;20041;-81
2022/10/26 12:59:15;;;;;;;0.00;0.00;;;20.40;99.90;;;;;;5074366;28;20051;-81
2022/10/26 13:01:44;;;;;;;;;;;20.40;99.90;;;;;;5074886;28;20118;-82
2022/10/26 13:04:23;;;;;;;0.80;0.32;;;20.50;99.90;;;;;;5057382;28;19920;-81
2022/10/26 13:07:24;;;;;;;0.00;0.00;;;20.50;99.90;;;;;;5074285;28;20476;-81
2022/10/26 13:09:57;;;;;;;0.00;0.00;;;20.40;99.90;;;;;;5057720;28;20098;-81
2022/10/26 13:12:25;;;;;;;2.63;0.43;;;20.40;99.90;;;;;;5057459;28;20106;-82
2022/10/26 13:14:59;;;;;;;0.00;0.00;;;20.40;99.90;;;;;;5074228;28;20044;-82
2022/10/26 13:17:26;;;;;;;;;;;20.40;99.90;;;;;;5057576;28;20068;-82
2022/10/26 13:19:59;;;;;;;0.38;0.38;;;20.40;99.90;;;;;;5073161;28;20368;-81